sensor_id;sensor_type;location;lat;lon;timestamp;pressure;altitude;pressure_sealevel;temperature;humidity
11888;BME280;6003;42.756;23.130;2023-04-08T00:00:28;153337.38;;;3.60;92.35
11888;BME280;6003;42.756;23.130;2023-04-08T00:02:54;153309.75;;;3.50;92.38
11888;BME280;6003;42.756;23.130;2023-04-08T00:05:21;153316.34;;;3.52;93.05
11888;BME280;6003;42.756;23.130;2023-04-08T00:07:48;153337.38;;;3.60;92.07
11888;BME280;6003;42.756;23.130;2023-04-08T00:10:15;153347.88;;;3.65;92.10
11888;BME280;6003;42.756;23.130;2023-04-08T00:12:42;153350.53;;;3.66;91.73
11888;BME280;6003;42.756;23.130;2023-04-08T00:15:11;153358.41;;;3.69;92.32
11888;BME280;6003;42.756;23.130;2023-04-08T00:17:38;153334.69;;;3.59;92.81
11888;BME280;6003;42.756;23.130;2023-04-08T00:20:06;153284.81;;;3.40;93.06
11888;BME280;6003;42.756;23.130;2023-04-08T00:22:33;153282.16;;;3.39;93.06
11888;BME280;6003;42.756;23.130;2023-04-08T00:25:00;153274.28;;;3.36;93.23
11888;BME280;6003;42.756;23.130;2023-04-08T00:27:27;153258.50;;;3.30;93.72
11888;BME280;6003;42.756;23.130;2023-04-08T00:29:54;153245.34;;;3.25;92.98
11888;BME280;6003;42.756;23.130;2023-04-08T00:32:23;153237.47;;;3.22;93.33
11888;BME280;6003;42.756;23.130;2023-04-08T00:34:49;153253.25;;;3.28;92.88
11888;BME280;6003;42.756;23.130;2023-04-08T00:37:16;153257.19;;;3.29;92.59
11888;BME280;6003;42.756;23.130;2023-04-08T00:39:43;153232.25;;;3.20;93.31
11888;BME280;6003;42.756;23.130;2023-04-08T00:42:11;153224.38;;;3.16;92.92
11888;BME280;6003;42.756;23.130;2023-04-08T00:44:37;153241.44;;;3.23;93.03
11888;BME280;6003;42.756;23.130;2023-04-08T00:47:04;153261.13;;;3.31;92.73
11888;BME280;6003;42.756;23.130;2023-04-08T00:49:32;153276.94;;;3.37;92.59
11888;BME280;6003;42.756;23.130;2023-04-08T00:51:59;153272.97;;;3.35;92.25
11888;BME280;6003;42.756;23.130;2023-04-08T00:54:26;153271.66;;;3.35;92.72
11888;BME280;6003;42.756;23.130;2023-04-08T00:56:53;153282.16;;;3.39;92.70
11888;BME280;6003;42.756;23.130;2023-04-08T00:59:20;153292.69;;;3.43;92.09
11888;BME280;6003;42.756;23.130;2023-04-08T01:01:52;153303.19;;;3.47;91.12
11888;BME280;6003;42.756;23.130;2023-04-08T01:04:27;153296.59;;;3.45;91.29
11888;BME280;6003;42.756;23.130;2023-04-08T01:07:00;153309.75;;;3.50;91.71
11888;BME280;6003;42.756;23.130;2023-04-08T01:09:31;153320.25;;;3.54;92.42
11888;BME280;6003;42.756;23.130;2023-04-08T01:12:02;153318.94;;;3.53;92.61
11888;BME280;6003;42.756;23.130;2023-04-08T01:14:31;153324.22;;;3.55;91.14
11888;BME280;6003;42.756;23.130;2023-04-08T01:17:01;153324.22;;;3.55;90.72
11888;BME280;6003;42.756;23.130;2023-04-08T01:19:30;153325.53;;;3.56;91.46
11888;BME280;6003;42.756;23.130;2023-04-08T01:22:04;153326.81;;;3.56;91.69
11888;BME280;6003;42.756;23.130;2023-04-08T01:24:39;153321.59;;;3.54;92.16
11888;BME280;6003;42.756;23.130;2023-04-08T01:27:11;153321.59;;;3.54;92.46
11888;BME280;6003;42.756;23.130;2023-04-08T01:29:40;153325.53;;;3.56;92.72
11888;BME280;6003;42.756;23.130;2023-04-08T01:32:08;153317.63;;;3.53;92.99
11888;BME280;6003;42.756;23.130;2023-04-08T01:34:37;153321.59;;;3.54;92.88
11888;BME280;6003;42.756;23.130;2023-04-08T01:37:06;153309.75;;;3.50;93.00
11888;BME280;6003;42.756;23.130;2023-04-08T01:39:34;153299.25;;;3.46;93.78
11888;BME280;6003;42.756;23.130;2023-04-08T01:42:01;153304.47;;;3.48;93.09
11888;BME280;6003;42.756;23.130;2023-04-08T01:44:30;153303.19;;;3.47;92.99
11888;BME280;6003;42.756;23.130;2023-04-08T01:46:58;153313.72;;;3.51;92.80
11888;BME280;6003;42.756;23.130;2023-04-08T01:49:25;153315.03;;;3.52;92.69
11888;BME280;6003;42.756;23.130;2023-04-08T01:51:53;153321.59;;;3.54;92.45
11888;BME280;6003;42.756;23.130;2023-04-08T01:54:22;153322.91;;;3.55;91.65
11888;BME280;6003;42.756;23.130;2023-04-08T01:56:50;153274.28;;;3.36;92.96
11888;BME280;6003;42.756;23.130;2023-04-08T01:59:19;153234.88;;;3.21;93.50
11888;BME280;6003;42.756;23.130;2023-04-08T02:01:49;153261.13;;;3.31;94.29
11888;BME280;6003;42.756;23.130;2023-04-08T02:04:17;153269.03;;;3.34;94.02
11888;BME280;6003;42.756;23.130;2023-04-08T02:06:44;153274.28;;;3.36;94.31
11888;BME280;6003;42.756;23.130;2023-04-08T02:09:11;153253.25;;;3.28;94.54
11888;BME280;6003;42.756;23.130;2023-04-08T02:11:38;153232.25;;;3.20;94.38
11888;BME280;6003;42.756;23.130;2023-04-08T02:14:04;153204.66;;;3.09;94.50
11888;BME280;6003;42.756;23.130;2023-04-08T02:16:38;153229.59;;;3.19;94.44
11888;BME280;6003;42.756;23.130;2023-04-08T02:19:11;153237.47;;;3.22;94.29
11888;BME280;6003;42.756;23.130;2023-04-08T02:21:45;153229.59;;;3.19;94.21
11888;BME280;6003;42.756;23.130;2023-04-08T02:24:13;153212.53;;;3.12;94.52
11888;BME280;6003;42.756;23.130;2023-04-08T02:26:44;153230.91;;;3.19;95.16
11888;BME280;6003;42.756;23.130;2023-04-08T02:29:14;153234.88;;;3.21;95.14
11888;BME280;6003;42.756;23.130;2023-04-08T02:31:42;153250.63;;;3.27;95.06
11888;BME280;6003;42.756;23.130;2023-04-08T02:34:12;153267.69;;;3.33;94.12
11888;BME280;6003;42.756;23.130;2023-04-08T02:36:40;153282.16;;;3.39;93.25
11888;BME280;6003;42.756;23.130;2023-04-08T02:39:10;153269.03;;;3.34;93.86
11888;BME280;6003;42.756;23.130;2023-04-08T02:41:37;153265.09;;;3.32;93.56
11888;BME280;6003;42.756;23.130;2023-04-08T02:44:04;153271.66;;;3.35;94.12
11888;BME280;6003;42.756;23.130;2023-04-08T02:46:31;153279.53;;;3.38;94.04
11888;BME280;6003;42.756;23.130;2023-04-08T02:48:58;153263.78;;;3.32;94.29
11888;BME280;6003;42.756;23.130;2023-04-08T02:51:26;153279.53;;;3.38;94.44
11888;BME280;6003;42.756;23.130;2023-04-08T02:53:53;153261.13;;;3.31;94.82
11888;BME280;6003;42.756;23.130;2023-04-08T02:56:20;153276.94;;;3.37;94.74
11888;BME280;6003;42.756;23.130;2023-04-08T02:58:47;153301.88;;;3.47;94.61
11888;BME280;6003;42.756;23.130;2023-04-08T03:01:13;153317.63;;;3.53;94.24
11888;BME280;6003;42.756;23.130;2023-04-08T03:03:40;153330.78;;;3.58;95.00
11888;BME280;6003;42.756;23.130;2023-04-08T03:06:07;153339.97;;;3.61;94.70
11888;BME280;6003;42.756;23.130;2023-04-08T03:08:36;153345.25;;;3.64;94.67
11888;BME280;6003;42.756;23.130;2023-04-08T03:11:03;153355.75;;;3.68;94.74
11888;BME280;6003;42.756;23.130;2023-04-08T03:13:29;153324.22;;;3.55;94.22
11888;BME280;6003;42.756;23.130;2023-04-08T03:15:56;153290.03;;;3.42;94.53
11888;BME280;6003;42.756;23.130;2023-04-08T03:18:23;153313.72;;;3.51;94.16
11888;BME280;6003;42.756;23.130;2023-04-08T03:20:50;153301.88;;;3.47;93.78
11888;BME280;6003;42.756;23.130;2023-04-08T03:23:17;153321.59;;;3.54;94.07
11888;BME280;6003;42.756;23.130;2023-04-08T03:25:45;153324.22;;;3.55;93.46
11888;BME280;6003;42.756;23.130;2023-04-08T03:28:12;153334.69;;;3.59;92.75
11888;BME280;6003;42.756;23.130;2023-04-08T03:30:39;153337.38;;;3.60;92.74
11888;BME280;6003;42.756;23.130;2023-04-08T03:33:06;153337.38;;;3.60;91.89
11888;BME280;6003;42.756;23.130;2023-04-08T03:35:33;153342.63;;;3.63;90.91
11888;BME280;6003;42.756;23.130;2023-04-08T03:38:00;153342.63;;;3.63;90.38
11888;BME280;6003;42.756;23.130;2023-04-08T03:40:27;153353.13;;;3.67;90.38
11888;BME280;6003;42.756;23.130;2023-04-08T03:42:55;153349.16;;;3.65;90.91
11888;BME280;6003;42.756;23.130;2023-04-08T03:45:22;153350.53;;;3.66;91.97
11888;BME280;6003;42.756;23.130;2023-04-08T03:47:48;153347.88;;;3.65;92.37
11888;BME280;6003;42.756;23.130;2023-04-08T03:50:15;153324.22;;;3.55;91.99
11888;BME280;6003;42.756;23.130;2023-04-08T03:52:42;153321.59;;;3.54;92.12
11888;BME280;6003;42.756;23.130;2023-04-08T03:55:09;153305.84;;;3.48;92.28
11888;BME280;6003;42.756;23.130;2023-04-08T03:57:35;153303.19;;;3.47;92.69
11888;BME280;6003;42.756;23.130;2023-04-08T04:00:05;153301.88;;;3.47;92.58
11888;BME280;6003;42.756;23.130;2023-04-08T04:02:32;153295.31;;;3.44;92.68
11888;BME280;6003;42.756;23.130;2023-04-08T04:04:59;153284.81;;;3.40;92.65
11888;BME280;6003;42.756;23.130;2023-04-08T04:07:26;153290.03;;;3.42;92.75
11888;BME280;6003;42.756;23.130;2023-04-08T04:09:52;153284.81;;;3.40;92.60
11888;BME280;6003;42.756;23.130;2023-04-08T04:12:21;153295.31;;;3.44;92.53
11888;BME280;6003;42.756;23.130;2023-04-08T04:14:48;153296.59;;;3.45;92.75
11888;BME280;6003;42.756;23.130;2023-04-08T04:17:16;153300.56;;;3.46;93.16
11888;BME280;6003;42.756;23.130;2023-04-08T04:19:43;153282.16;;;3.39;93.62
11888;BME280;6003;42.756;23.130;2023-04-08T04:22:10;153254.59;;;3.28;94.33
11888;BME280;6003;42.756;23.130;2023-04-08T04:24:36;153261.13;;;3.31;94.71
11888;BME280;6003;42.756;23.130;2023-04-08T04:27:03;153275.56;;;3.36;95.57
11888;BME280;6003;42.756;23.130;2023-04-08T04:29:30;153290.03;;;3.42;95.58
11888;BME280;6003;42.756;23.130;2023-04-08T04:31:57;153308.44;;;3.49;95.84
11888;BME280;6003;42.756;23.130;2023-04-08T04:34:25;153315.03;;;3.52;96.31
11888;BME280;6003;42.756;23.130;2023-04-08T04:36:52;153336.06;;;3.60;96.13
11888;BME280;6003;42.756;23.130;2023-04-08T04:39:19;153341.28;;;3.62;96.03
11888;BME280;6003;42.756;23.130;2023-04-08T04:41:46;153354.44;;;3.67;96.42
11888;BME280;6003;42.756;23.130;2023-04-08T04:44:13;153358.41;;;3.69;95.96
11888;BME280;6003;42.756;23.130;2023-04-08T04:46:40;153363.63;;;3.71;96.49
11888;BME280;6003;42.756;23.130;2023-04-08T04:49:07;153370.19;;;3.73;96.46
11888;BME280;6003;42.756;23.130;2023-04-08T04:54:37;153405.69;;;3.87;96.24
11888;BME280;6003;42.756;23.130;2023-04-08T04:57:05;153405.69;;;3.87;96.43
11888;BME280;6003;42.756;23.130;2023-04-08T04:59:32;153429.34;;;3.96;96.79
11888;BME280;6003;42.756;23.130;2023-04-08T05:02:00;153434.63;;;3.98;97.05
11888;BME280;6003;42.756;23.130;2023-04-08T05:04:26;153467.47;;;4.11;97.13
11888;BME280;6003;42.756;23.130;2023-04-08T05:06:53;153497.72;;;4.23;96.61
11888;BME280;6003;42.756;23.130;2023-04-08T05:09:20;153524.03;;;4.33;95.84
11888;BME280;6003;42.756;23.130;2023-04-08T05:11:48;153522.72;;;4.33;92.25
11888;BME280;6003;42.756;23.130;2023-04-08T05:14:15;153542.47;;;4.40;91.19
11888;BME280;6003;42.756;23.130;2023-04-08T05:16:42;153587.19;;;4.58;91.23
11888;BME280;6003;42.756;23.130;2023-04-08T05:19:09;153629.25;;;4.74;91.47
11888;BME280;6003;42.756;23.130;2023-04-08T05:21:35;153680.56;;;4.94;90.73
11888;BME280;6003;42.756;23.130;2023-04-08T05:24:03;153726.59;;;5.12;88.70
11888;BME280;6003;42.756;23.130;2023-04-08T05:26:30;153754.25;;;5.23;86.44
11888;BME280;6003;42.756;23.130;2023-04-08T05:28:58;153822.69;;;5.49;86.53
11888;BME280;6003;42.756;23.130;2023-04-08T05:31:25;153881.94;;;5.72;85.64
11888;BME280;6003;42.756;23.130;2023-04-08T05:33:52;153929.34;;;5.91;84.19
11888;BME280;6003;42.756;23.130;2023-04-08T05:36:19;153953.09;;;6.00;82.20
11888;BME280;6003;42.756;23.130;2023-04-08T05:38:46;153963.63;;;6.04;82.35
11888;BME280;6003;42.756;23.130;2023-04-08T05:41:13;153958.38;;;6.02;83.00
11888;BME280;6003;42.756;23.130;2023-04-08T05:43:40;153984.69;;;6.12;82.56
11888;BME280;6003;42.756;23.130;2023-04-08T05:46:08;153989.97;;;6.14;81.92
11888;BME280;6003;42.756;23.130;2023-04-08T05:48:36;153983.38;;;6.12;81.25
11888;BME280;6003;42.756;23.130;2023-04-08T05:51:03;153966.28;;;6.05;82.15
11888;BME280;6003;42.756;23.130;2023-04-08T05:53:29;153984.69;;;6.12;82.61
11888;BME280;6003;42.756;23.130;2023-04-08T05:55:56;153988.66;;;6.14;81.57
11888;BME280;6003;42.756;23.130;2023-04-08T05:58:23;153989.97;;;6.14;79.43
11888;BME280;6003;42.756;23.130;2023-04-08T06:00:50;153987.38;;;6.13;80.10
11888;BME280;6003;42.756;23.130;2023-04-08T06:03:19;154000.50;;;6.18;79.61
11888;BME280;6003;42.756;23.130;2023-04-08T06:05:45;154003.16;;;6.19;80.58
11888;BME280;6003;42.756;23.130;2023-04-08T06:08:12;153987.38;;;6.13;79.45
11888;BME280;6003;42.756;23.130;2023-04-08T06:10:39;153989.97;;;6.14;80.23
11888;BME280;6003;42.756;23.130;2023-04-08T06:13:06;154003.16;;;6.19;80.03
11888;BME280;6003;42.756;23.130;2023-04-08T06:15:33;154014.97;;;6.24;79.48
11888;BME280;6003;42.756;23.130;2023-04-08T06:18:00;154045.28;;;6.36;79.30
11888;BME280;6003;42.756;23.130;2023-04-08T06:20:29;154059.78;;;6.41;77.92
11888;BME280;6003;42.756;23.130;2023-04-08T06:22:55;154045.28;;;6.36;79.18
11888;BME280;6003;42.756;23.130;2023-04-08T06:25:23;154051.88;;;6.38;80.88
11888;BME280;6003;42.756;23.130;2023-04-08T06:27:49;154033.44;;;6.31;81.24
11888;BME280;6003;42.756;23.130;2023-04-08T06:30:16;154066.34;;;6.44;80.21
11888;BME280;6003;42.756;23.130;2023-04-08T06:32:43;154088.75;;;6.52;79.23
11888;BME280;6003;42.756;23.130;2023-04-08T06:35:11;154058.47;;;6.41;78.65
11888;BME280;6003;42.756;23.130;2023-04-08T06:37:39;154074.25;;;6.47;77.90
11888;BME280;6003;42.756;23.130;2023-04-08T06:40:07;154095.34;;;6.55;78.04
11888;BME280;6003;42.756;23.130;2023-04-08T06:42:34;154103.25;;;6.58;77.81
11888;BME280;6003;42.756;23.130;2023-04-08T06:45:03;154120.41;;;6.65;77.65
11888;BME280;6003;42.756;23.130;2023-04-08T06:47:30;154040.03;;;6.33;77.69
11888;BME280;6003;42.756;23.130;2023-04-08T06:49:57;154072.94;;;6.46;79.45
11888;BME280;6003;42.756;23.130;2023-04-08T06:52:24;154072.94;;;6.46;77.75
11888;BME280;6003;42.756;23.130;2023-04-08T06:54:53;154086.13;;;6.51;79.83
11888;BME280;6003;42.756;23.130;2023-04-08T06:57:19;154084.84;;;6.51;79.85
11888;BME280;6003;42.756;23.130;2023-04-08T06:59:46;154016.34;;;6.24;79.05
11888;BME280;6003;42.756;23.130;2023-04-08T07:02:13;153987.38;;;6.13;80.16
11888;BME280;6003;42.756;23.130;2023-04-08T07:04:40;153920.16;;;5.87;80.57
11888;BME280;6003;42.756;23.130;2023-04-08T07:07:07;153972.88;;;6.07;81.78
11888;BME280;6003;42.756;23.130;2023-04-08T07:09:34;154026.84;;;6.28;80.33
11888;BME280;6003;42.756;23.130;2023-04-08T07:12:02;154117.75;;;6.64;78.85
11888;BME280;6003;42.756;23.130;2023-04-08T07:14:29;154173.13;;;6.85;78.57
11888;BME280;6003;42.756;23.130;2023-04-08T07:16:56;154206.03;;;6.98;78.18
11888;BME280;6003;42.756;23.130;2023-04-08T07:19:23;154249.53;;;7.15;77.93
11888;BME280;6003;42.756;23.130;2023-04-08T07:21:55;154278.56;;;7.26;76.76
11888;BME280;6003;42.756;23.130;2023-04-08T07:24:22;154256.16;;;7.17;76.00
11888;BME280;6003;42.756;23.130;2023-04-08T07:26:49;154258.75;;;7.18;76.85
11888;BME280;6003;42.756;23.130;2023-04-08T07:29:18;154265.34;;;7.21;78.02
11888;BME280;6003;42.756;23.130;2023-04-08T07:31:44;154244.25;;;7.13;77.52
11888;BME280;6003;42.756;23.130;2023-04-08T07:34:11;154237.66;;;7.10;76.49
11888;BME280;6003;42.756;23.130;2023-04-08T07:36:38;154294.38;;;7.32;78.31
11888;BME280;6003;42.756;23.130;2023-04-08T07:39:05;154293.06;;;7.32;76.61
11888;BME280;6003;42.756;23.130;2023-04-08T07:41:32;154261.44;;;7.19;77.00
11888;BME280;6003;42.756;23.130;2023-04-08T07:43:58;154296.97;;;7.33;78.40
11888;BME280;6003;42.756;23.130;2023-04-08T07:46:27;154287.78;;;7.30;77.09
11888;BME280;6003;42.756;23.130;2023-04-08T07:48:53;154282.47;;;7.28;78.06
11888;BME280;6003;42.756;23.130;2023-04-08T07:51:20;154376.13;;;7.64;78.04
11888;BME280;6003;42.756;23.130;2023-04-08T07:53:47;154382.72;;;7.66;77.22
11888;BME280;6003;42.756;23.130;2023-04-08T07:56:15;154382.72;;;7.66;76.94
11888;BME280;6003;42.756;23.130;2023-04-08T07:58:42;154411.72;;;7.78;77.24
11888;BME280;6003;42.756;23.130;2023-04-08T08:01:16;154480.31;;;8.04;75.25
11888;BME280;6003;42.756;23.130;2023-04-08T08:03:45;154506.72;;;8.14;74.79
11888;BME280;6003;42.756;23.130;2023-04-08T08:06:12;154489.53;;;8.08;77.26
11888;BME280;6003;42.756;23.130;2023-04-08T08:08:39;154494.81;;;8.10;77.04
11888;BME280;6003;42.756;23.130;2023-04-08T08:11:06;154468.41;;;8.00;76.46
11888;BME280;6003;42.756;23.130;2023-04-08T08:13:33;154419.63;;;7.81;75.49
11888;BME280;6003;42.756;23.130;2023-04-08T08:16:00;154337.88;;;7.49;76.65
11888;BME280;6003;42.756;23.130;2023-04-08T08:18:28;154393.25;;;7.71;75.49
11888;BME280;6003;42.756;23.130;2023-04-08T08:20:56;154473.69;;;8.02;75.24
11888;BME280;6003;42.756;23.130;2023-04-08T08:23:23;154548.91;;;8.31;74.44
11888;BME280;6003;42.756;23.130;2023-04-08T08:25:58;154585.88;;;8.45;74.46
11888;BME280;6003;42.756;23.130;2023-04-08T08:28:25;154633.44;;;8.64;73.76
11888;BME280;6003;42.756;23.130;2023-04-08T08:30:51;154709.97;;;8.93;74.69
11888;BME280;6003;42.756;23.130;2023-04-08T08:33:18;154712.59;;;8.94;71.77
11888;BME280;6003;42.756;23.130;2023-04-08T08:35:45;154696.75;;;8.88;73.51
11888;BME280;6003;42.756;23.130;2023-04-08T08:38:13;154775.97;;;9.19;72.90
11888;BME280;6003;42.756;23.130;2023-04-08T08:40:42;154880.31;;;9.59;73.48
11888;BME280;6003;42.756;23.130;2023-04-08T08:43:09;154852.56;;;9.48;71.12
11888;BME280;6003;42.756;23.130;2023-04-08T08:45:38;154799.75;;;9.28;72.30
11888;BME280;6003;42.756;23.130;2023-04-08T08:48:05;154744.31;;;9.07;72.68
11888;BME280;6003;42.756;23.130;2023-04-08T08:50:32;154733.72;;;9.02;72.12
11888;BME280;6003;42.756;23.130;2023-04-08T08:52:59;154741.63;;;9.06;71.08
11888;BME280;6003;42.756;23.130;2023-04-08T08:55:29;154826.16;;;9.38;71.40
11888;BME280;6003;42.756;23.130;2023-04-08T08:57:56;154905.38;;;9.69;72.43
11888;BME280;6003;42.756;23.130;2023-04-08T09:00:30;154948.97;;;9.86;72.54
11888;BME280;6003;42.756;23.130;2023-04-08T09:03:14;154865.78;;;9.54;69.48
11888;BME280;6003;42.756;23.130;2023-04-08T09:05:48;154880.31;;;9.59;71.45
11888;BME280;6003;42.756;23.130;2023-04-08T09:08:28;154853.88;;;9.49;71.23
11888;BME280;6003;42.756;23.130;2023-04-08T09:11:11;154894.84;;;9.65;72.43
11888;BME280;6003;42.756;23.130;2023-04-08T09:13:39;154894.84;;;9.65;71.69
11888;BME280;6003;42.756;23.130;2023-04-08T09:16:07;154836.72;;;9.42;70.88
11888;BME280;6003;42.756;23.130;2023-04-08T09:18:35;154976.72;;;9.97;71.95
11888;BME280;6003;42.756;23.130;2023-04-08T09:21:03;154997.88;;;10.05;69.63
11888;BME280;6003;42.756;23.130;2023-04-08T09:23:40;154984.66;;;10.00;71.43
11888;BME280;6003;42.756;23.130;2023-04-08T09:26:10;154906.69;;;9.69;71.88
11888;BME280;6003;42.756;23.130;2023-04-08T09:28:37;154849.94;;;9.47;71.37
11888;BME280;6003;42.756;23.130;2023-04-08T09:31:18;154915.97;;;9.73;71.91
11888;BME280;6003;42.756;23.130;2023-04-08T09:33:45;154947.66;;;9.85;69.71
11888;BME280;6003;42.756;23.130;2023-04-08T09:36:13;154997.88;;;10.05;73.03
11888;BME280;6003;42.756;23.130;2023-04-08T09:38:40;155070.63;;;10.33;71.02
11888;BME280;6003;42.756;23.130;2023-04-08T09:41:09;155085.13;;;10.38;70.41
11888;BME280;6003;42.756;23.130;2023-04-08T09:43:42;155141.97;;;10.60;68.35
11888;BME280;6003;42.756;23.130;2023-04-08T09:46:14;155127.41;;;10.55;70.05
11888;BME280;6003;42.756;23.130;2023-04-08T09:48:47;155213.38;;;10.88;67.70
11888;BME280;6003;42.756;23.130;2023-04-08T09:51:18;155275.50;;;11.12;68.35
11888;BME280;6003;42.756;23.130;2023-04-08T09:53:46;155280.81;;;11.14;68.08
11888;BME280;6003;42.756;23.130;2023-04-08T09:56:16;155291.34;;;11.18;66.80
11888;BME280;6003;42.756;23.130;2023-04-08T09:58:51;155278.13;;;11.13;65.93
11888;BME280;6003;42.756;23.130;2023-04-08T10:01:25;155238.47;;;10.98;67.57
11888;BME280;6003;42.756;23.130;2023-04-08T10:03:54;155278.13;;;11.13;67.13
11888;BME280;6003;42.756;23.130;2023-04-08T10:06:26;155267.56;;;11.09;65.58
11888;BME280;6003;42.756;23.130;2023-04-08T10:08:54;155168.41;;;10.71;66.53
11888;BME280;6003;42.756;23.130;2023-04-08T10:11:23;155122.13;;;10.53;66.93
11888;BME280;6003;42.756;23.130;2023-04-08T10:13:50;155071.94;;;10.33;67.45
11888;BME280;6003;42.756;23.130;2023-04-08T10:16:21;155001.81;;;10.06;67.45
11888;BME280;6003;42.756;23.130;2023-04-08T10:18:49;155004.50;;;10.07;68.57
11888;BME280;6003;42.756;23.130;2023-04-08T10:21:38;154972.75;;;9.95;68.49
11888;BME280;6003;42.756;23.130;2023-04-08T10:24:08;154975.44;;;9.96;70.15
11888;BME280;6003;42.756;23.130;2023-04-08T10:26:39;155053.34;;;10.26;70.68
11888;BME280;6003;42.756;23.130;2023-04-08T10:29:34;155042.81;;;10.22;70.25
11888;BME280;6003;42.756;23.130;2023-04-08T10:32:01;155036.19;;;10.20;69.29
11888;BME280;6003;42.756;23.130;2023-04-08T10:34:28;155003.13;;;10.07;68.23
11888;BME280;6003;42.756;23.130;2023-04-08T10:36:56;155082.47;;;10.37;68.73
11888;BME280;6003;42.756;23.130;2023-04-08T10:39:26;155225.25;;;10.93;69.50
11888;BME280;6003;42.756;23.130;2023-04-08T10:41:54;155317.84;;;11.28;67.19
11888;BME280;6003;42.756;23.130;2023-04-08T10:44:23;155327.06;;;11.32;67.60
11888;BME280;6003;42.756;23.130;2023-04-08T10:46:51;155286.06;;;11.16;66.90
11888;BME280;6003;42.756;23.130;2023-04-08T10:49:18;155209.38;;;10.87;65.13
11888;BME280;6003;42.756;23.130;2023-04-08T10:51:46;155206.75;;;10.86;65.08
11888;BME280;6003;42.756;23.130;2023-04-08T10:54:14;155226.56;;;10.93;64.80
11888;BME280;6003;42.756;23.130;2023-04-08T10:56:46;155262.25;;;11.07;65.34
11888;BME280;6003;42.756;23.130;2023-04-08T10:59:16;155315.16;;;11.27;64.91
11888;BME280;6003;42.756;23.130;2023-04-08T11:01:45;155320.47;;;11.29;65.95
11888;BME280;6003;42.756;23.130;2023-04-08T11:04:15;155349.56;;;11.41;63.30
11888;BME280;6003;42.756;23.130;2023-04-08T11:06:44;155360.13;;;11.45;62.95
11888;BME280;6003;42.756;23.130;2023-04-08T11:09:12;155320.47;;;11.29;64.06
11888;BME280;6003;42.756;23.130;2023-04-08T11:11:41;155389.22;;;11.56;65.48
11888;BME280;6003;42.756;23.130;2023-04-08T11:14:09;155432.88;;;11.73;65.20
11888;BME280;6003;42.756;23.130;2023-04-08T11:16:38;155454.06;;;11.81;62.89
11888;BME280;6003;42.756;23.130;2023-04-08T11:19:05;155447.44;;;11.79;61.55
11888;BME280;6003;42.756;23.130;2023-04-08T11:21:34;155324.44;;;11.31;61.67
11888;BME280;6003;42.756;23.130;2023-04-08T11:24:05;155341.63;;;11.38;61.90
11888;BME280;6003;42.756;23.130;2023-04-08T11:26:32;155312.53;;;11.26;60.60
11888;BME280;6003;42.756;23.130;2023-04-08T11:29:00;155327.06;;;11.32;63.48
11888;BME280;6003;42.756;23.130;2023-04-08T11:31:27;155325.75;;;11.32;65.23
11888;BME280;6003;42.756;23.130;2023-04-08T11:33:57;155385.28;;;11.55;64.88
11888;BME280;6003;42.756;23.130;2023-04-08T11:36:24;155288.72;;;11.17;66.08
11888;BME280;6003;42.756;23.130;2023-04-08T11:38:53;155312.53;;;11.26;65.89
11888;BME280;6003;42.756;23.130;2023-04-08T11:41:19;155315.16;;;11.27;67.13
11888;BME280;6003;42.756;23.130;2023-04-08T11:43:54;155301.97;;;11.22;64.64
11888;BME280;6003;42.756;23.130;2023-04-08T11:46:21;155242.47;;;10.99;66.17
11888;BME280;6003;42.756;23.130;2023-04-08T11:49:00;155282.13;;;11.15;64.48
11888;BME280;6003;42.756;23.130;2023-04-08T11:51:28;155307.22;;;11.24;65.86
11888;BME280;6003;42.756;23.130;2023-04-08T11:53:55;155358.81;;;11.44;64.22
11888;BME280;6003;42.756;23.130;2023-04-08T11:56:23;155376.03;;;11.51;64.11
11888;BME280;6003;42.756;23.130;2023-04-08T11:58:50;155283.44;;;11.15;64.52
11888;BME280;6003;42.756;23.130;2023-04-08T12:01:17;155266.25;;;11.09;64.79
11888;BME280;6003;42.756;23.130;2023-04-08T12:03:58;155217.31;;;10.90;66.40
11888;BME280;6003;42.756;23.130;2023-04-08T12:06:27;155136.66;;;10.58;69.34
11888;BME280;6003;42.756;23.130;2023-04-08T12:08:54;155102.31;;;10.45;70.62
11888;BME280;6003;42.756;23.130;2023-04-08T12:11:23;155042.81;;;10.22;70.59
11888;BME280;6003;42.756;23.130;2023-04-08T12:13:50;155044.13;;;10.23;70.82
11888;BME280;6003;42.756;23.130;2023-04-08T12:16:17;155115.56;;;10.50;75.03
11888;BME280;6003;42.756;23.130;2023-04-08T12:18:45;155245.09;;;11.00;77.58
11888;BME280;6003;42.756;23.130;2023-04-08T12:21:13;155365.44;;;11.47;70.96
11888;BME280;6003;42.756;23.130;2023-04-08T12:23:42;155500.41;;;11.99;69.31
11888;BME280;6003;42.756;23.130;2023-04-08T12:26:08;155559.97;;;12.22;60.75
11888;BME280;6003;42.756;23.130;2023-04-08T12:28:36;155601.03;;;12.38;63.78
11888;BME280;6003;42.756;23.130;2023-04-08T12:31:03;155569.28;;;12.26;62.32
11888;BME280;6003;42.756;23.130;2023-04-08T12:33:30;155414.38;;;11.66;62.12
11888;BME280;6003;42.756;23.130;2023-04-08T12:35:57;155439.50;;;11.75;64.67
11888;BME280;6003;42.756;23.130;2023-04-08T12:38:25;155439.50;;;11.75;64.18
11888;BME280;6003;42.756;23.130;2023-04-08T12:40:54;155385.28;;;11.55;63.28
11888;BME280;6003;42.756;23.130;2023-04-08T12:43:21;155395.84;;;11.59;64.52
11888;BME280;6003;42.756;23.130;2023-04-08T12:45:49;155414.38;;;11.66;68.30
11888;BME280;6003;42.756;23.130;2023-04-08T12:48:16;155455.38;;;11.82;66.86
11888;BME280;6003;42.756;23.130;2023-04-08T12:50:43;155546.78;;;12.17;70.10
11888;BME280;6003;42.756;23.130;2023-04-08T12:53:10;155570.59;;;12.26;67.58
11888;BME280;6003;42.756;23.130;2023-04-08T12:55:37;155591.78;;;12.34;66.18
11888;BME280;6003;42.756;23.130;2023-04-08T12:58:05;155595.72;;;12.36;64.55
11888;BME280;6003;42.756;23.130;2023-04-08T13:00:32;155569.28;;;12.26;65.33
11888;BME280;6003;42.756;23.130;2023-04-08T13:03:02;155553.34;;;12.19;64.55
11888;BME280;6003;42.756;23.130;2023-04-08T13:05:29;155548.09;;;12.17;65.80